sensor_id;sensor_type;location;lat;lon;timestamp;temperature;humidity
41756;DHT22;27435;48.480;9.258;2023-07-20T00:02:23;20.00;74.60
41756;DHT22;27435;48.480;9.258;2023-07-20T00:04:49;20.00;74.90
41756;DHT22;27435;48.480;9.258;2023-07-20T00:07:14;20.00;75.10
41756;DHT22;27435;48.480;9.258;2023-07-20T00:09:40;20.10;75.10
41756;DHT22;27435;48.480;9.258;2023-07-20T00:12:06;20.00;75.00
41756;DHT22;27435;48.480;9.258;2023-07-20T00:14:32;19.90;75.00
41756;DHT22;27435;48.480;9.258;2023-07-20T00:16:57;20.00;75.20
41756;DHT22;27435;48.480;9.258;2023-07-20T00:19:26;20.00;75.00
41756;DHT22;27435;48.480;9.258;2023-07-20T00:21:53;20.00;75.00
41756;DHT22;27435;48.480;9.258;2023-07-20T00:24:20;19.90;74.50
41756;DHT22;27435;48.480;9.258;2023-07-20T00:26:45;20.00;74.40
41756;DHT22;27435;48.480;9.258;2023-07-20T00:29:11;19.90;74.40
41756;DHT22;27435;48.480;9.258;2023-07-20T00:31:37;19.80;74.40
41756;DHT22;27435;48.480;9.258;2023-07-20T00:34:03;19.80;73.70
41756;DHT22;27435;48.480;9.258;2023-07-20T00:36:29;19.70;74.00
41756;DHT22;27435;48.480;9.258;2023-07-20T00:38:55;19.70;73.80
41756;DHT22;27435;48.480;9.258;2023-07-20T00:41:21;19.60;74.00
41756;DHT22;27435;48.480;9.258;2023-07-20T00:43:46;19.50;74.60
41756;DHT22;27435;48.480;9.258;2023-07-20T00:46:12;19.50;74.80
41756;DHT22;27435;48.480;9.258;2023-07-20T00:48:38;19.60;74.80
41756;DHT22;27435;48.480;9.258;2023-07-20T00:51:05;19.60;75.00
41756;DHT22;27435;48.480;9.258;2023-07-20T00:53:31;19.60;74.90
41756;DHT22;27435;48.480;9.258;2023-07-20T00:55:56;19.60;75.20
41756;DHT22;27435;48.480;9.258;2023-07-20T00:58:23;19.60;75.20
41756;DHT22;27435;48.480;9.258;2023-07-20T01:00:49;19.60;75.40
41756;DHT22;27435;48.480;9.258;2023-07-20T01:03:15;19.60;74.50
41756;DHT22;27435;48.480;9.258;2023-07-20T01:05:54;19.60;73.90
41756;DHT22;27435;48.480;9.258;2023-07-20T01:08:52;19.50;73.70
41756;DHT22;27435;48.480;9.258;2023-07-20T01:12:07;19.60;73.00
41756;DHT22;27435;48.480;9.258;2023-07-20T01:14:14;19.50;72.70
41756;DHT22;27435;48.480;9.258;2023-07-20T01:16:40;19.50;72.30
41756;DHT22;27435;48.480;9.258;2023-07-20T01:19:06;19.50;72.80
41756;DHT22;27435;48.480;9.258;2023-07-20T01:21:40;19.40;72.30
41756;DHT22;27435;48.480;9.258;2023-07-20T01:24:19;19.40;72.30
41756;DHT22;27435;48.480;9.258;2023-07-20T01:31:57;19.50;72.70
41756;DHT22;27435;48.480;9.258;2023-07-20T01:34:23;19.40;72.50
41756;DHT22;27435;48.480;9.258;2023-07-20T01:36:50;19.40;72.90
41756;DHT22;27435;48.480;9.258;2023-07-20T01:39:18;19.30;73.30
41756;DHT22;27435;48.480;9.258;2023-07-20T01:41:45;19.30;73.40
41756;DHT22;27435;48.480;9.258;2023-07-20T01:44:12;19.30;73.50
41756;DHT22;27435;48.480;9.258;2023-07-20T01:46:37;19.40;73.30
41756;DHT22;27435;48.480;9.258;2023-07-20T01:49:03;19.30;73.60
41756;DHT22;27435;48.480;9.258;2023-07-20T01:51:29;19.20;74.00
41756;DHT22;27435;48.480;9.258;2023-07-20T01:53:54;19.30;73.70
41756;DHT22;27435;48.480;9.258;2023-07-20T01:56:20;19.20;74.10
41756;DHT22;27435;48.480;9.258;2023-07-20T01:58:46;19.10;74.50
41756;DHT22;27435;48.480;9.258;2023-07-20T02:01:12;19.10;74.50
41756;DHT22;27435;48.480;9.258;2023-07-20T02:03:37;19.20;74.20
41756;DHT22;27435;48.480;9.258;2023-07-20T02:06:03;19.10;74.60
41756;DHT22;27435;48.480;9.258;2023-07-20T02:08:28;19.10;74.00
41756;DHT22;27435;48.480;9.258;2023-07-20T02:10:54;19.00;74.40
41756;DHT22;27435;48.480;9.258;2023-07-20T02:13:19;19.00;74.50
41756;DHT22;27435;48.480;9.258;2023-07-20T02:15:45;19.00;74.00
41756;DHT22;27435;48.480;9.258;2023-07-20T02:18:12;19.10;73.70
41756;DHT22;27435;48.480;9.258;2023-07-20T02:20:38;19.00;73.70
41756;DHT22;27435;48.480;9.258;2023-07-20T02:23:05;18.90;74.10
41756;DHT22;27435;48.480;9.258;2023-07-20T02:25:31;18.90;73.60
41756;DHT22;27435;48.480;9.258;2023-07-20T02:27:56;18.90;73.80
41756;DHT22;27435;48.480;9.258;2023-07-20T02:30:23;18.90;73.70
41756;DHT22;27435;48.480;9.258;2023-07-20T02:32:49;18.90;73.60
41756;DHT22;27435;48.480;9.258;2023-07-20T02:35:15;18.70;74.10
41756;DHT22;27435;48.480;9.258;2023-07-20T02:37:41;18.70;74.50
41756;DHT22;27435;48.480;9.258;2023-07-20T02:40:07;18.70;74.50
41756;DHT22;27435;48.480;9.258;2023-07-20T02:42:33;18.60;74.70
41756;DHT22;27435;48.480;9.258;2023-07-20T02:44:59;18.50;75.10
41756;DHT22;27435;48.480;9.258;2023-07-20T02:47:24;18.50;75.40
41756;DHT22;27435;48.480;9.258;2023-07-20T02:49:50;18.50;75.80
41756;DHT22;27435;48.480;9.258;2023-07-20T02:52:16;18.60;75.80
41756;DHT22;27435;48.480;9.258;2023-07-20T02:54:41;18.50;76.00
41756;DHT22;27435;48.480;9.258;2023-07-20T02:57:07;18.40;76.00
41756;DHT22;27435;48.480;9.258;2023-07-20T02:59:33;18.40;76.50
41756;DHT22;27435;48.480;9.258;2023-07-20T03:01:58;18.40;77.00
41756;DHT22;27435;48.480;9.258;2023-07-20T03:04:27;18.30;77.30
41756;DHT22;27435;48.480;9.258;2023-07-20T03:06:52;18.40;77.40
41756;DHT22;27435;48.480;9.258;2023-07-20T03:09:18;18.30;77.60
41756;DHT22;27435;48.480;9.258;2023-07-20T03:11:44;18.10;77.20
41756;DHT22;27435;48.480;9.258;2023-07-20T03:14:09;18.10;77.80
41756;DHT22;27435;48.480;9.258;2023-07-20T03:16:36;18.10;77.50
41756;DHT22;27435;48.480;9.258;2023-07-20T03:19:02;18.10;77.70
41756;DHT22;27435;48.480;9.258;2023-07-20T03:21:27;18.00;77.70
41756;DHT22;27435;48.480;9.258;2023-07-20T03:23:54;18.00;77.60
41756;DHT22;27435;48.480;9.258;2023-07-20T03:26:20;17.90;77.70
41756;DHT22;27435;48.480;9.258;2023-07-20T03:28:45;17.90;78.20
41756;DHT22;27435;48.480;9.258;2023-07-20T03:31:11;17.80;78.50
41756;DHT22;27435;48.480;9.258;2023-07-20T03:33:37;17.80;78.70
41756;DHT22;27435;48.480;9.258;2023-07-20T03:36:03;17.80;78.90
41756;DHT22;27435;48.480;9.258;2023-07-20T03:38:28;17.80;78.60
41756;DHT22;27435;48.480;9.258;2023-07-20T03:40:58;17.70;79.10
41756;DHT22;27435;48.480;9.258;2023-07-20T03:43:25;17.70;79.10
41756;DHT22;27435;48.480;9.258;2023-07-20T03:45:51;17.50;79.50
41756;DHT22;27435;48.480;9.258;2023-07-20T03:48:19;17.50;79.70
41756;DHT22;27435;48.480;9.258;2023-07-20T03:50:50;17.50;79.40
41756;DHT22;27435;48.480;9.258;2023-07-20T03:53:16;17.60;79.60
41756;DHT22;27435;48.480;9.258;2023-07-20T03:55:49;17.60;79.30
41756;DHT22;27435;48.480;9.258;2023-07-20T03:58:17;17.60;79.80
41756;DHT22;27435;48.480;9.258;2023-07-20T04:01:00;17.60;79.40
41756;DHT22;27435;48.480;9.258;2023-07-20T04:03:26;17.60;79.50
41756;DHT22;27435;48.480;9.258;2023-07-20T04:05:54;17.60;79.70
41756;DHT22;27435;48.480;9.258;2023-07-20T04:08:22;17.50;79.70
41756;DHT22;27435;48.480;9.258;2023-07-20T04:10:48;17.40;80.10
41756;DHT22;27435;48.480;9.258;2023-07-20T04:13:13;17.40;80.40
41756;DHT22;27435;48.480;9.258;2023-07-20T04:15:39;17.50;80.20
41756;DHT22;27435;48.480;9.258;2023-07-20T04:18:05;17.50;80.10
41756;DHT22;27435;48.480;9.258;2023-07-20T04:20:30;17.50;80.30
41756;DHT22;27435;48.480;9.258;2023-07-20T04:22:56;17.40;79.90
41756;DHT22;27435;48.480;9.258;2023-07-20T04:25:21;17.30;80.80
41756;DHT22;27435;48.480;9.258;2023-07-20T04:27:47;17.30;80.90
41756;DHT22;27435;48.480;9.258;2023-07-20T04:30:13;17.30;80.40
41756;DHT22;27435;48.480;9.258;2023-07-20T04:32:39;17.30;80.70
41756;DHT22;27435;48.480;9.258;2023-07-20T04:35:09;17.30;81.00
41756;DHT22;27435;48.480;9.258;2023-07-20T04:37:35;17.30;80.60
41756;DHT22;27435;48.480;9.258;2023-07-20T04:40:00;17.30;81.20
41756;DHT22;27435;48.480;9.258;2023-07-20T04:42:26;17.40;80.80
41756;DHT22;27435;48.480;9.258;2023-07-20T04:44:52;17.30;80.70
41756;DHT22;27435;48.480;9.258;2023-07-20T04:47:17;17.30;81.70
41756;DHT22;27435;48.480;9.258;2023-07-20T04:49:43;17.20;81.10
41756;DHT22;27435;48.480;9.258;2023-07-20T04:52:08;17.20;81.40
41756;DHT22;27435;48.480;9.258;2023-07-20T04:54:34;17.50;80.60
41756;DHT22;27435;48.480;9.258;2023-07-20T04:56:59;17.80;79.80
41756;DHT22;27435;48.480;9.258;2023-07-20T04:59:25;18.00;79.10
41756;DHT22;27435;48.480;9.258;2023-07-20T05:01:51;18.10;78.90
41756;DHT22;27435;48.480;9.258;2023-07-20T05:04:17;18.20;78.10
41756;DHT22;27435;48.480;9.258;2023-07-20T05:06:42;18.30;78.50
41756;DHT22;27435;48.480;9.258;2023-07-20T05:09:09;18.30;78.90
41756;DHT22;27435;48.480;9.258;2023-07-20T05:11:34;18.50;78.60
41756;DHT22;27435;48.480;9.258;2023-07-20T05:14:00;18.70;78.20
41756;DHT22;27435;48.480;9.258;2023-07-20T05:16:26;18.80;77.70
41756;DHT22;27435;48.480;9.258;2023-07-20T05:18:51;19.10;77.80
41756;DHT22;27435;48.480;9.258;2023-07-20T05:21:17;19.20;78.70
41756;DHT22;27435;48.480;9.258;2023-07-20T05:23:43;19.20;79.00
41756;DHT22;27435;48.480;9.258;2023-07-20T05:26:09;19.40;79.30
41756;DHT22;27435;48.480;9.258;2023-07-20T05:28:34;19.20;79.60
41756;DHT22;27435;48.480;9.258;2023-07-20T05:31:03;19.30;78.30
41756;DHT22;27435;48.480;9.258;2023-07-20T05:33:28;19.30;78.00
41756;DHT22;27435;48.480;9.258;2023-07-20T05:35:54;19.20;77.70
41756;DHT22;27435;48.480;9.258;2023-07-20T05:38:19;19.00;77.30
41756;DHT22;27435;48.480;9.258;2023-07-20T05:40:45;19.30;77.30
41756;DHT22;27435;48.480;9.258;2023-07-20T05:43:12;19.70;76.20
41756;DHT22;27435;48.480;9.258;2023-07-20T05:45:41;19.90;75.00
41756;DHT22;27435;48.480;9.258;2023-07-20T05:48:08;19.90;74.50
41756;DHT22;27435;48.480;9.258;2023-07-20T05:50:45;19.40;75.30
41756;DHT22;27435;48.480;9.258;2023-07-20T05:53:11;19.70;75.80
41756;DHT22;27435;48.480;9.258;2023-07-20T05:55:37;19.90;75.30
41756;DHT22;27435;48.480;9.258;2023-07-20T05:58:02;20.10;73.70
41756;DHT22;27435;48.480;9.258;2023-07-20T06:00:29;20.20;73.20
41756;DHT22;27435;48.480;9.258;2023-07-20T06:02:55;20.30;73.10
41756;DHT22;27435;48.480;9.258;2023-07-20T06:05:22;20.50;72.40
41756;DHT22;27435;48.480;9.258;2023-07-20T06:07:49;20.40;72.90
41756;DHT22;27435;48.480;9.258;2023-07-20T06:10:14;20.40;72.70
41756;DHT22;27435;48.480;9.258;2023-07-20T06:12:40;20.60;72.50
41756;DHT22;27435;48.480;9.258;2023-07-20T06:15:24;20.70;72.40
41756;DHT22;27435;48.480;9.258;2023-07-20T06:17:51;20.90;71.90
41756;DHT22;27435;48.480;9.258;2023-07-20T06:20:16;20.90;72.30
41756;DHT22;27435;48.480;9.258;2023-07-20T06:22:44;20.80;72.00
41756;DHT22;27435;48.480;9.258;2023-07-20T06:25:10;20.80;72.20
41756;DHT22;27435;48.480;9.258;2023-07-20T06:27:36;21.00;71.40
41756;DHT22;27435;48.480;9.258;2023-07-20T06:30:01;20.80;71.90
41756;DHT22;27435;48.480;9.258;2023-07-20T06:32:27;21.20;71.30
41756;DHT22;27435;48.480;9.258;2023-07-20T06:34:53;21.50;70.50
41756;DHT22;27435;48.480;9.258;2023-07-20T06:37:18;21.70;69.70
41756;DHT22;27435;48.480;9.258;2023-07-20T06:39:45;21.20;70.10
41756;DHT22;27435;48.480;9.258;2023-07-20T06:42:11;21.30;69.30
41756;DHT22;27435;48.480;9.258;2023-07-20T06:44:37;21.40;69.10
41756;DHT22;27435;48.480;9.258;2023-07-20T06:47:02;21.50;68.80
41756;DHT22;27435;48.480;9.258;2023-07-20T06:49:28;21.50;68.80
41756;DHT22;27435;48.480;9.258;2023-07-20T06:51:54;21.40;69.30
41756;DHT22;27435;48.480;9.258;2023-07-20T06:54:20;21.60;68.70
41756;DHT22;27435;48.480;9.258;2023-07-20T06:56:46;21.60;68.60
41756;DHT22;27435;48.480;9.258;2023-07-20T06:59:11;21.30;69.60
41756;DHT22;27435;48.480;9.258;2023-07-20T07:01:37;21.60;68.60
41756;DHT22;27435;48.480;9.258;2023-07-20T07:04:03;22.00;68.30
41756;DHT22;27435;48.480;9.258;2023-07-20T07:06:31;22.50;66.60
41756;DHT22;27435;48.480;9.258;2023-07-20T07:08:58;23.20;64.90
41756;DHT22;27435;48.480;9.258;2023-07-20T07:11:24;23.40;64.00
41756;DHT22;27435;48.480;9.258;2023-07-20T07:13:49;23.10;65.20
41756;DHT22;27435;48.480;9.258;2023-07-20T07:16:17;22.80;64.80
41756;DHT22;27435;48.480;9.258;2023-07-20T07:18:45;22.70;65.50
41756;DHT22;27435;48.480;9.258;2023-07-20T07:21:11;22.90;64.80
41756;DHT22;27435;48.480;9.258;2023-07-20T07:23:38;22.50;66.00
41756;DHT22;27435;48.480;9.258;2023-07-20T07:26:04;22.40;66.50
41756;DHT22;27435;48.480;9.258;2023-07-20T07:28:30;23.10;65.50
41756;DHT22;27435;48.480;9.258;2023-07-20T07:30:55;22.70;65.70
41756;DHT22;27435;48.480;9.258;2023-07-20T07:33:22;22.60;66.30
41756;DHT22;27435;48.480;9.258;2023-07-20T07:35:49;22.60;67.10
41756;DHT22;27435;48.480;9.258;2023-07-20T07:38:14;21.90;68.30
41756;DHT22;27435;48.480;9.258;2023-07-20T07:40:40;22.00;68.80
41756;DHT22;27435;48.480;9.258;2023-07-20T07:43:05;22.00;68.80
41756;DHT22;27435;48.480;9.258;2023-07-20T07:45:34;22.20;67.80
41756;DHT22;27435;48.480;9.258;2023-07-20T07:48:01;22.50;67.10
41756;DHT22;27435;48.480;9.258;2023-07-20T07:50:27;22.50;66.80
41756;DHT22;27435;48.480;9.258;2023-07-20T07:52:53;22.10;68.30
41756;DHT22;27435;48.480;9.258;2023-07-20T07:55:19;22.00;68.00
41756;DHT22;27435;48.480;9.258;2023-07-20T07:57:45;22.00;67.90
41756;DHT22;27435;48.480;9.258;2023-07-20T08:00:13;21.60;68.70
41756;DHT22;27435;48.480;9.258;2023-07-20T08:02:41;21.60;69.10
41756;DHT22;27435;48.480;9.258;2023-07-20T08:05:07;21.40;70.50
41756;DHT22;27435;48.480;9.258;2023-07-20T08:07:33;21.30;71.30
41756;DHT22;27435;48.480;9.258;2023-07-20T08:09:59;21.10;71.90
41756;DHT22;27435;48.480;9.258;2023-07-20T08:12:26;21.40;71.20
41756;DHT22;27435;48.480;9.258;2023-07-20T08:14:51;21.50;69.30
41756;DHT22;27435;48.480;9.258;2023-07-20T08:17:17;21.60;68.70
41756;DHT22;27435;48.480;9.258;2023-07-20T08:19:43;21.50;68.30
41756;DHT22;27435;48.480;9.258;2023-07-20T08:22:09;21.70;68.80
41756;DHT22;27435;48.480;9.258;2023-07-20T08:24:38;22.10;68.30
41756;DHT22;27435;48.480;9.258;2023-07-20T08:27:04;21.80;68.30
41756;DHT22;27435;48.480;9.258;2023-07-20T08:29:30;21.60;69.60
41756;DHT22;27435;48.480;9.258;2023-07-20T08:31:56;21.50;68.70
41756;DHT22;27435;48.480;9.258;2023-07-20T08:34:21;21.50;68.30
41756;DHT22;27435;48.480;9.258;2023-07-20T08:36:47;21.30;66.50
41756;DHT22;27435;48.480;9.258;2023-07-20T08:39:12;21.10;66.60
41756;DHT22;27435;48.480;9.258;2023-07-20T08:41:38;21.30;66.30
41756;DHT22;27435;48.480;9.258;2023-07-20T08:44:05;21.60;66.00
41756;DHT22;27435;48.480;9.258;2023-07-20T08:46:31;21.60;66.00
41756;DHT22;27435;48.480;9.258;2023-07-20T08:48:57;21.90;66.00
41756;DHT22;27435;48.480;9.258;2023-07-20T08:51:24;22.40;65.20
41756;DHT22;27435;48.480;9.258;2023-07-20T08:53:51;22.60;64.40
41756;DHT22;27435;48.480;9.258;2023-07-20T08:56:18;22.70;64.10
41756;DHT22;27435;48.480;9.258;2023-07-20T08:58:45;22.90;63.50
41756;DHT22;27435;48.480;9.258;2023-07-20T09:01:12;23.10;63.80
41756;DHT22;27435;48.480;9.258;2023-07-20T09:03:38;22.90;64.00
41756;DHT22;27435;48.480;9.258;2023-07-20T09:06:05;23.30;63.70
41756;DHT22;27435;48.480;9.258;2023-07-20T09:08:31;23.10;64.00
41756;DHT22;27435;48.480;9.258;2023-07-20T09:10:57;22.70;65.00
41756;DHT22;27435;48.480;9.258;2023-07-20T09:13:25;22.50;66.20
41756;DHT22;27435;48.480;9.258;2023-07-20T09:15:54;22.30;66.40
41756;DHT22;27435;48.480;9.258;2023-07-20T09:18:27;22.30;65.70
41756;DHT22;27435;48.480;9.258;2023-07-20T09:20:57;22.60;64.70
41756;DHT22;27435;48.480;9.258;2023-07-20T09:23:38;22.70;63.10
41756;DHT22;27435;48.480;9.258;2023-07-20T09:26:13;23.10;63.60
41756;DHT22;27435;48.480;9.258;2023-07-20T09:28:52;23.10;62.80
41756;DHT22;27435;48.480;9.258;2023-07-20T09:31:22;23.00;60.90
41756;DHT22;27435;48.480;9.258;2023-07-20T09:33:48;22.70;63.10
41756;DHT22;27435;48.480;9.258;2023-07-20T09:36:14;22.70;64.30
41756;DHT22;27435;48.480;9.258;2023-07-20T09:38:41;22.90;64.30
41756;DHT22;27435;48.480;9.258;2023-07-20T09:41:07;22.90;64.00
41756;DHT22;27435;48.480;9.258;2023-07-20T09:43:34;23.10;62.90
41756;DHT22;27435;48.480;9.258;2023-07-20T09:46:00;23.10;63.00
41756;DHT22;27435;48.480;9.258;2023-07-20T09:48:26;23.00;62.80
41756;DHT22;27435;48.480;9.258;2023-07-20T09:50:52;22.60;62.60
41756;DHT22;27435;48.480;9.258;2023-07-20T09:53:19;22.60;62.10
41756;DHT22;27435;48.480;9.258;2023-07-20T09:55:49;22.80;62.10
41756;DHT22;27435;48.480;9.258;2023-07-20T09:58:15;22.70;62.20
41756;DHT22;27435;48.480;9.258;2023-07-20T10:00:42;22.50;62.30
41756;DHT22;27435;48.480;9.258;2023-07-20T10:03:16;22.60;61.20
41756;DHT22;27435;48.480;9.258;2023-07-20T10:05:57;22.70;61.00
41756;DHT22;27435;48.480;9.258;2023-07-20T10:08:29;22.90;59.80
41756;DHT22;27435;48.480;9.258;2023-07-20T10:10:57;22.80;60.50
41756;DHT22;27435;48.480;9.258;2023-07-20T10:13:29;22.70;60.60
41756;DHT22;27435;48.480;9.258;2023-07-20T10:16:02;22.50;60.70
41756;DHT22;27435;48.480;9.258;2023-07-20T10:18:59;22.60;61.20
41756;DHT22;27435;48.480;9.258;2023-07-20T10:21:27;23.10;60.20
41756;DHT22;27435;48.480;9.258;2023-07-20T10:23:56;23.50;58.40
41756;DHT22;27435;48.480;9.258;2023-07-20T10:26:21;23.20;58.30
41756;DHT22;27435;48.480;9.258;2023-07-20T10:28:47;23.30;59.00
41756;DHT22;27435;48.480;9.258;2023-07-20T10:31:13;23.50;58.50
41756;DHT22;27435;48.480;9.258;2023-07-20T10:33:41;23.30;58.90
41756;DHT22;27435;48.480;9.258;2023-07-20T10:36:07;23.20;59.50
41756;DHT22;27435;48.480;9.258;2023-07-20T10:38:52;23.10;59.70
41756;DHT22;27435;48.480;9.258;2023-07-20T10:41:29;23.20;59.00
41756;DHT22;27435;48.480;9.258;2023-07-20T10:44:01;23.30;59.40
41756;DHT22;27435;48.480;9.258;2023-07-20T10:49:06;24.20;56.70
41756;DHT22;27435;48.480;9.258;2023-07-20T10:51:48;24.10;56.00
41756;DHT22;27435;48.480;9.258;2023-07-20T10:56:44;23.30;56.30
41756;DHT22;27435;48.480;9.258;2023-07-20T10:59:20;23.30;56.60
41756;DHT22;27435;48.480;9.258;2023-07-20T11:02:06;23.40;56.30
41756;DHT22;27435;48.480;9.258;2023-07-20T11:04:43;23.70;55.20
41756;DHT22;27435;48.480;9.258;2023-07-20T11:07:09;24.00;54.20
41756;DHT22;27435;48.480;9.258;2023-07-20T11:09:36;24.40;53.10
41756;DHT22;27435;48.480;9.258;2023-07-20T11:12:15;24.60;52.30
41756;DHT22;27435;48.480;9.258;2023-07-20T11:14:43;24.40;53.40
41756;DHT22;27435;48.480;9.258;2023-07-20T11:17:13;24.50;54.00
41756;DHT22;27435;48.480;9.258;2023-07-20T11:19:39;24.90;53.00
41756;DHT22;27435;48.480;9.258;2023-07-20T11:22:08;25.10;52.00
41756;DHT22;27435;48.480;9.258;2023-07-20T11:24:38;24.20;53.10
41756;DHT22;27435;48.480;9.258;2023-07-20T11:27:04;23.70;54.20
41756;DHT22;27435;48.480;9.258;2023-07-20T11:29:29;23.80;55.00
41756;DHT22;27435;48.480;9.258;2023-07-20T11:31:56;23.90;54.80
41756;DHT22;27435;48.480;9.258;2023-07-20T11:34:22;24.00;54.10
41756;DHT22;27435;48.480;9.258;2023-07-20T11:36:49;24.30;52.80
41756;DHT22;27435;48.480;9.258;2023-07-20T11:39:16;24.50;52.30
41756;DHT22;27435;48.480;9.258;2023-07-20T11:41:55;25.00;52.60
41756;DHT22;27435;48.480;9.258;2023-07-20T11:44:22;25.30;51.70
41756;DHT22;27435;48.480;9.258;2023-07-20T11:47:07;25.70;51.50
41756;DHT22;27435;48.480;9.258;2023-07-20T11:49:37;25.20;50.30
41756;DHT22;27435;48.480;9.258;2023-07-20T11:52:08;24.40;51.70
41756;DHT22;27435;48.480;9.258;2023-07-20T11:54:35;24.50;51.60
41756;DHT22;27435;48.480;9.258;2023-07-20T11:57:04;24.80;52.10
41756;DHT22;27435;48.480;9.258;2023-07-20T11:59:33;25.30;52.30
41756;DHT22;27435;48.480;9.258;2023-07-20T12:02:02;25.40;50.80
41756;DHT22;27435;48.480;9.258;2023-07-20T12:04:33;24.90;51.00
41756;DHT22;27435;48.480;9.258;2023-07-20T12:07:00;24.60;52.10
41756;DHT22;27435;48.480;9.258;2023-07-20T12:09:25;24.60;52.10
41756;DHT22;27435;48.480;9.258;2023-07-20T12:11:51;24.90;52.80
41756;DHT22;27435;48.480;9.258;2023-07-20T12:14:17;25.20;51.40
41756;DHT22;27435;48.480;9.258;2023-07-20T12:16:43;25.60;51.20
41756;DHT22;27435;48.480;9.258;2023-07-20T12:19:11;25.80;51.10
41756;DHT22;27435;48.480;9.258;2023-07-20T12:21:38;25.50;50.70
41756;DHT22;27435;48.480;9.258;2023-07-20T12:24:05;25.50;50.40
41756;DHT22;27435;48.480;9.258;2023-07-20T12:26:32;25.30;49.80
41756;DHT22;27435;48.480;9.258;2023-07-20T12:28:58;25.30;50.50
41756;DHT22;27435;48.480;9.258;2023-07-20T12:31:25;25.40;50.10
41756;DHT22;27435;48.480;9.258;2023-07-20T12:33:51;25.80;49.30
41756;DHT22;27435;48.480;9.258;2023-07-20T12:36:18;26.20;49.00
41756;DHT22;27435;48.480;9.258;2023-07-20T12:38:44;26.80;48.40
41756;DHT22;27435;48.480;9.258;2023-07-20T12:41:11;27.20;47.80
41756;DHT22;27435;48.480;9.258;2023-07-20T12:43:44;27.60;46.60
41756;DHT22;27435;48.480;9.258;2023-07-20T12:46:11;27.70;46.60
41756;DHT22;27435;48.480;9.258;2023-07-20T12:48:39;27.50;45.80
41756;DHT22;27435;48.480;9.258;2023-07-20T12:51:06;26.90;46.60
41756;DHT22;27435;48.480;9.258;2023-07-20T12:53:32;26.50;47.80
41756;DHT22;27435;48.480;9.258;2023-07-20T12:55:59;25.80;48.40
41756;DHT22;27435;48.480;9.258;2023-07-20T12:58:25;25.80;48.40
41756;DHT22;27435;48.480;9.258;2023-07-20T13:00:50;25.80;47.70
41756;DHT22;27435;48.480;9.258;2023-07-20T13:03:16;25.90;48.70
41756;DHT22;27435;48.480;9.258;2023-07-20T13:05:44;26.40;47.50
41756;DHT22;27435;48.480;9.258;2023-07-20T13:08:10;26.10;47.60
41756;DHT22;27435;48.480;9.258;2023-07-20T13:10:36;26.60;47.60
41756;DHT22;27435;48.480;9.258;2023-07-20T13:13:02;27.40;46.30
41756;DHT22;27435;48.480;9.258;2023-07-20T13:15:32;27.60;45.90
41756;DHT22;27435;48.480;9.258;2023-07-20T13:17:58;27.60;46.30
41756;DHT22;27435;48.480;9.258;2023-07-20T13:20:24;27.70;46.00
41756;DHT22;27435;48.480;9.258;2023-07-20T13:22:50;28.10;45.30
41756;DHT22;27435;48.480;9.258;2023-07-20T13:25:16;28.60;44.00
41756;DHT22;27435;48.480;9.258;2023-07-20T13:27:42;29.40;42.70
41756;DHT22;27435;48.480;9.258;2023-07-20T13:30:08;29.40;43.30
41756;DHT22;27435;48.480;9.258;2023-07-20T13:32:35;28.80;43.90
41756;DHT22;27435;48.480;9.258;2023-07-20T13:35:01;28.40;44.80
41756;DHT22;27435;48.480;9.258;2023-07-20T13:37:27;28.50;44.50
41756;DHT22;27435;48.480;9.258;2023-07-20T13:39:53;27.40;45.10
41756;DHT22;27435;48.480;9.258;2023-07-20T13:42:19;26.70;46.10
41756;DHT22;27435;48.480;9.258;2023-07-20T13:44:47;26.60;46.40
41756;DHT22;27435;48.480;9.258;2023-07-20T13:47:13;26.90;46.50
41756;DHT22;27435;48.480;9.258;2023-07-20T13:49:39;27.30;45.30
41756;DHT22;27435;48.480;9.258;2023-07-20T13:52:05;27.40;45.80
41756;DHT22;27435;48.480;9.258;2023-07-20T13:54:31;28.20;44.80
41756;DHT22;27435;48.480;9.258;2023-07-20T13:56:56;28.50;43.70
41756;DHT22;27435;48.480;9.258;2023-07-20T13:59:23;29.00;43.70
41756;DHT22;27435;48.480;9.258;2023-07-20T14:01:49;28.90;42.70
41756;DHT22;27435;48.480;9.258;2023-07-20T14:04:15;28.40;43.70
41756;DHT22;27435;48.480;9.258;2023-07-20T14:06:40;27.60;45.20
41756;DHT22;27435;48.480;9.258;2023-07-20T14:09:06;27.70;43.90
41756;DHT22;27435;48.480;9.258;2023-07-20T14:11:32;28.30;44.30
41756;DHT22;27435;48.480;9.258;2023-07-20T14:13:58;28.40;43.70
41756;DHT22;27435;48.480;9.258;2023-07-20T14:16:24;29.50;43.20
41756;DHT22;27435;48.480;9.258;2023-07-20T14:18:50;29.40;42.00
41756;DHT22;27435;48.480;9.258;2023-07-20T14:21:20;29.40;42.20
41756;DHT22;27435;48.480;9.258;2023-07-20T14:23:47;29.70;41.80
41756;DHT22;27435;48.480;9.258;2023-07-20T14:26:13;30.30;41.00
41756;DHT22;27435;48.480;9.258;2023-07-20T14:28:39;30.10;40.60
41756;DHT22;27435;48.480;9.258;2023-07-20T14:31:05;30.10;40.30
41756;DHT22;27435;48.480;9.258;2023-07-20T14:33:31;30.00;40.20
41756;DHT22;27435;48.480;9.258;2023-07-20T14:35:57;30.30;40.00
41756;DHT22;27435;48.480;9.258;2023-07-20T14:38:23;30.50;39.50
41756;DHT22;27435;48.480;9.258;2023-07-20T14:40:48;31.40;38.40
41756;DHT22;27435;48.480;9.258;2023-07-20T14:43:14;32.00;38.10
41756;DHT22;27435;48.480;9.258;2023-07-20T14:45:43;32.20;37.60
41756;DHT22;27435;48.480;9.258;2023-07-20T14:48:08;32.40;36.90
41756;DHT22;27435;48.480;9.258;2023-07-20T14:50:34;32.50;36.40
41756;DHT22;27435;48.480;9.258;2023-07-20T14:53:00;32.10;37.50
41756;DHT22;27435;48.480;9.258;2023-07-20T14:55:26;31.30;38.10
41756;DHT22;27435;48.480;9.258;2023-07-20T14:57:51;31.00;38.20
41756;DHT22;27435;48.480;9.258;2023-07-20T15:00:18;30.50;38.50
41756;DHT22;27435;48.480;9.258;2023-07-20T15:02:44;30.00;39.20
41756;DHT22;27435;48.480;9.258;2023-07-20T15:05:10;29.90;39.70
41756;DHT22;27435;48.480;9.258;2023-07-20T15:07:36;30.60;38.90
41756;DHT22;27435;48.480;9.258;2023-07-20T15:10:03;31.50;38.30
41756;DHT22;27435;48.480;9.258;2023-07-20T15:12:32;32.10;37.10
41756;DHT22;27435;48.480;9.258;2023-07-20T15:17:31;31.80;37.00
41756;DHT22;27435;48.480;9.258;2023-07-20T15:19:57;31.00;38.30
41756;DHT22;27435;48.480;9.258;2023-07-20T15:22:23;30.80;37.90
41756;DHT22;27435;48.480;9.258;2023-07-20T15:24:49;30.80;38.20
41756;DHT22;27435;48.480;9.258;2023-07-20T15:27:15;31.80;36.60
41756;DHT22;27435;48.480;9.258;2023-07-20T15:29:40;31.70;37.20
41756;DHT22;27435;48.480;9.258;2023-07-20T15:32:07;31.50;37.70
41756;DHT22;27435;48.480;9.258;2023-07-20T15:34:34;30.60;38.60
41756;DHT22;27435;48.480;9.258;2023-07-20T15:36:59;31.10;38.30
41756;DHT22;27435;48.480;9.258;2023-07-20T15:39:25;32.40;36.40
41756;DHT22;27435;48.480;9.258;2023-07-20T15:41:52;33.20;35.50
41756;DHT22;27435;48.480;9.258;2023-07-20T15:44:18;33.20;34.40